CDT,Max TemperatureF,Mean TemperatureF,Min TemperatureF,Max Dew PointF,MeanDew PointF,Min DewpointF,Max Humidity, Mean Humidity, Min Humidity, Max Sea Level PressureIn, Mean Sea Level PressureIn, Min Sea Level PressureIn, Max VisibilityMiles, Mean VisibilityMiles, Min VisibilityMiles, Max Wind SpeedMPH, Mean Wind SpeedMPH, Max Gust SpeedMPH,PrecipitationIn, CloudCover, Events, WindDirDegrees
2012-10-1,83,69,54,60,55,52,93,65,37,29.88,29.84,29.80,10,10,7,17,8,23,0.00,0,,319
2012-10-2,81,70,59,57,54,49,87,60,33,29.98,29.92,29.86,10,10,10,12,7,17,0.00,0,,325
2012-10-3,84,69,54,58,54,52,93,64,34,30.02,29.97,29.93,10,10,7,16,7,21,0.00,0,,167
2012-10-4,89,76,63,70,64,57,84,69,53,30.10,30.05,30.00,10,10,10,22,12,26,0.00,3,,152
2012-10-5,88,76,63,70,67,54,87,67,46,30.10,30.03,29.94,10,9,5,24,11,29,0.00,4,,174
2012-10-6,63,57,51,53,49,42,80,73,66,30.21,30.12,30.05,10,10,8,21,13,25,0.00,8,,14
2012-10-7,56,52,48,43,39,35,77,64,50,30.29,30.24,30.19,10,10,10,18,11,30,T,8,,19
2012-10-8,67,54,41,49,42,38,89,67,44,30.28,30.18,30.08,10,10,10,10,6,16,0.00,2,,54
2012-10-9,82,69,55,64,57,48,87,69,51,30.06,29.98,29.86,10,10,9,24,12,31,0.00,5,,174
2012-10-10,86,76,66,70,67,63,93,74,55,30.13,30.05,29.97,10,8,2,14,6,17,0.00,3,,162
2012-10-11,89,77,64,72,68,62,93,74,55,30.15,30.09,30.03,10,8,4,26,8,33,T,5,,168
2012-10-12,87,80,73,71,68,64,93,72,50,30.19,30.11,30.06,10,8,5,15,10,18,0.00,5,,162
2012-10-13,85,79,72,72,70,66,93,77,61,30.09,29.98,29.87,10,10,3,25,16,31,0.06,6,Rain,174
2012-10-14,84,70,56,72,58,50,90,61,31,30.09,30.00,29.88,10,10,10,25,9,33,0.00,2,,322
2012-10-15,83,67,50,55,50,45,89,58,26,30.13,30.05,29.97,10,10,10,12,2,16,0.00,0,,218
2012-10-16,71,64,56,63,57,51,87,70,53,29.97,29.84,29.74,10,10,10,22,10,26,T,4,Rain,180
2012-10-17,93,75,57,66,60,47,93,60,26,29.76,29.68,29.56,10,10,9,22,13,28,0.00,4,,215
2012-10-18,78,61,43,47,37,28,83,50,16,30.01,29.93,29.76,10,10,8,17,6,22,0.00,0,,12
2012-10-19,81,60,38,43,37,32,86,52,17,30.06,29.98,29.90,10,10,7,14,4,15,0.00,0,,216
2012-10-20,86,67,48,71,57,41,87,68,48,29.91,29.84,29.75,10,10,10,25,13,32,0.00,1,,189
2012-10-21,89,81,73,70,69,66,87,67,47,29.92,29.85,29.79,10,9,6,24,16,32,0.00,5,,176
2012-10-22,88,80,72,72,69,65,87,70,53,30.01,29.93,29.90,10,10,7,21,12,25,0.00,5,,161
2012-10-23,85,77,69,68,66,64,90,73,55,29.99,29.94,29.89,10,10,10,20,11,25,0.00,5,,166
2012-10-24,85,76,66,67,65,63,93,72,51,30.01,29.92,29.84,10,10,4,20,12,24,0.00,2,,168
2012-10-25,85,72,59,68,62,44,97,74,51,30.06,29.89,29.81,10,10,8,28,14,36,0.00,6,,179
2012-10-26,59,51,43,43,39,33,74,61,47,30.31,30.18,30.05,10,10,10,24,15,30,T,7,,359
2012-10-27,62,50,37,34,31,28,76,54,31,30.34,30.25,30.16,10,10,10,16,9,21,0.00,0,,355
2012-10-28,67,49,30,33,29,26,85,54,22,30.31,30.24,30.18,10,10,7,16,5,21,0.00,0,,350
2012-10-29,69,50,30,37,30,27,85,53,21,30.32,30.23,30.13,10,8,2,9,3,23,0.00,0,,150
2012-10-30,77,57,37,48,39,34,79,52,25,30.13,30.05,29.96,10,10,10,16,5,20,0.00,0,,177
2012-10-31,86,67,48,54,48,43,93,58,23,30.04,29.99,29.95,10,10,10,22,6,25,0.00,0,,246